Time;durP1;ratioP1;P1;durP2;ratioP2;P2;SDS_P1;SDS_P2;PMS_P1;PMS_P2;Temp;Humidity;BMP_temperature;BMP_pressure;BME280_temperature;BME280_humidity;BME280_pressure;Samples;Min_cycle;Max_cycle;Signal;HPM_P1;HPM_P2
2021/05/26 04:01:49;;;;;;;14.75;12.35;;;10.20;99.90;;;;;;5390007;23;20246;-65
2021/05/26 04:04:16;;;;;;;13.20;11.88;;;10.10;99.90;;;;;;4993675;28;20683;-66
2021/05/26 04:06:42;;;;;;;15.20;12.23;;;10.10;99.90;;;;;;4993118;28;20655;-65
2021/05/26 04:09:08;;;;;;;13.65;11.98;;;10.10;99.90;;;;;;4993930;28;20593;-65
2021/05/26 04:11:34;;;;;;;14.13;12.45;;;10.10;99.90;;;;;;4993335;28;20351;-70
2021/05/26 04:14:00;;;;;;;14.60;11.45;;;10.00;99.90;;;;;;4994782;28;20378;-69
2021/05/26 04:16:26;;;;;;;15.25;12.35;;;10.00;99.90;;;;;;4994108;28;20266;-68
2021/05/26 04:18:54;;;;;;;13.65;11.20;;;10.00;99.90;;;;;;4993552;28;20211;-68
2021/05/26 04:21:20;;;;;;;13.93;12.00;;;10.00;99.90;;;;;;4993619;28;20224;-67
2021/05/26 04:23:46;;;;;;;15.05;13.45;;;10.10;99.90;;;;;;4993237;28;20204;-67
2021/05/26 04:26:12;;;;;;;13.57;12.23;;;10.50;99.90;;;;;;4993394;28;20266;-67
2021/05/26 04:28:43;;;;;;;12.40;11.30;;;11.00;99.90;;;;;;4993253;28;20212;-67
2021/05/26 04:31:09;;;;;;;12.20;11.00;;;11.20;99.90;;;;;;4992755;28;20770;-67
2021/05/26 04:33:35;;;;;;;9.73;8.85;;;11.70;99.90;;;;;;4992399;28;20226;-69
2021/05/26 04:36:03;;;;;;;9.07;8.48;;;12.10;99.90;;;;;;4993320;28;20212;-68
2021/05/26 04:38:29;;;;;;;8.55;8.00;;;12.10;99.90;;;;;;4992866;28;20703;-67
2021/05/26 04:40:55;;;;;;;9.80;8.70;;;11.90;99.90;;;;;;4992776;28;20575;-67
2021/05/26 04:43:21;;;;;;;10.35;9.40;;;11.70;99.90;;;;;;4992983;28;20284;-67
2021/05/26 04:45:48;;;;;;;8.25;7.57;;;11.60;99.90;;;;;;4993064;28;20208;-71
2021/05/26 04:48:14;;;;;;;10.20;9.50;;;11.50;99.90;;;;;;4993141;28;20212;-70
2021/05/26 04:50:41;;;;;;;12.00;10.13;;;11.40;99.90;;;;;;4992759;28;20227;-70
2021/05/26 04:53:07;;;;;;;10.50;9.60;;;11.20;99.90;;;;;;4992436;28;20228;-70
2021/05/26 04:55:34;;;;;;;10.80;9.80;;;11.10;99.90;;;;;;4992971;28;20215;-70
2021/05/26 04:58:01;;;;;;;10.98;9.98;;;11.00;99.90;;;;;;4992782;28;20215;-70
2021/05/26 05:00:27;;;;;;;11.45;10.55;;;11.10;99.90;;;;;;4991927;28;20236;-70
2021/05/26 05:02:54;;;;;;;12.95;11.60;;;11.00;99.90;;;;;;4991944;28;20208;-70
2021/05/26 05:05:20;;;;;;;12.65;11.45;;;11.00;99.90;;;;;;4992563;28;20655;-70
2021/05/26 05:07:46;;;;;;;12.27;10.88;;;11.10;99.90;;;;;;4992572;28;20227;-70
2021/05/26 05:10:14;;;;;;;17.13;11.73;;;11.00;99.90;;;;;;4992874;28;20215;-67
2021/05/26 05:12:40;;;;;;;13.45;11.25;;;10.90;99.90;;;;;;4994569;28;20593;-67
2021/05/26 05:15:08;;;;;;;13.20;12.00;;;10.90;99.90;;;;;;4993802;28;20277;-67
2021/05/26 05:17:34;;;;;;;12.85;11.60;;;10.80;99.90;;;;;;4994023;28;20656;-67
2021/05/26 05:20:00;;;;;;;12.95;11.70;;;10.90;99.90;;;;;;4992983;28;20219;-66
2021/05/26 05:22:26;;;;;;;12.40;11.18;;;10.90;99.90;;;;;;4992427;28;20224;-67
2021/05/26 05:24:53;;;;;;;11.50;10.40;;;10.80;99.90;;;;;;4992955;28;20289;-67
2021/05/26 05:27:20;;;;;;;13.98;11.85;;;10.80;99.90;;;;;;4993045;28;20215;-67
2021/05/26 05:29:47;;;;;;;12.40;11.20;;;10.80;99.90;;;;;;4996005;28;20211;-67
2021/05/26 05:32:13;;;;;;;13.73;12.30;;;10.80;99.90;;;;;;4995877;28;20259;-67
2021/05/26 05:34:39;;;;;;;12.82;11.55;;;10.80;99.90;;;;;;4996498;28;20226;-67
2021/05/26 05:37:05;;;;;;;12.82;11.48;;;10.90;99.90;;;;;;4997065;28;20223;-67
2021/05/26 05:39:32;;;;;;;11.27;10.38;;;10.80;99.90;;;;;;4996853;28;20738;-70
2021/05/26 05:41:58;;;;;;;10.45;9.55;;;10.90;99.90;;;;;;4996504;28;20598;-69
2021/05/26 05:44:25;;;;;;;12.05;11.05;;;10.90;99.90;;;;;;4996264;28;20208;-70
2021/05/26 05:46:51;;;;;;;10.45;9.55;;;10.90;99.90;;;;;;4996204;28;20207;-66
2021/05/26 05:49:17;;;;;;;11.57;10.48;;;10.90;99.90;;;;;;4997784;28;20207;-66
2021/05/26 05:51:43;;;;;;;12.10;10.90;;;10.90;99.90;;;;;;4997345;28;20231;-67
2021/05/26 05:54:10;;;;;;;11.32;10.15;;;11.00;99.90;;;;;;4997512;28;20290;-66
2021/05/26 05:56:36;;;;;;;11.30;10.40;;;11.10;99.90;;;;;;4996621;28;20215;-67
2021/05/26 05:59:02;;;;;;;9.63;8.93;;;11.20;99.90;;;;;;4996969;28;20218;-68
2021/05/26 06:01:30;;;;;;;9.35;8.55;;;11.40;99.90;;;;;;4996086;28;20243;-69
2021/05/26 06:03:56;;;;;;;9.77;8.80;;;11.40;99.90;;;;;;4997096;28;20239;-70
2021/05/26 06:06:22;;;;;;;9.80;8.90;;;11.50;99.90;;;;;;4996002;28;20547;-68
2021/05/26 06:08:49;;;;;;;9.93;9.23;;;11.80;99.90;;;;;;4996221;28;20683;-71
2021/05/26 06:11:15;;;;;;;9.82;8.70;;;12.00;99.90;;;;;;4995928;28;20224;-70
2021/05/26 06:13:45;;;;;;;9.05;8.32;;;12.10;99.90;;;;;;4995488;28;20236;-70
2021/05/26 06:16:11;;;;;;;8.82;8.18;;;12.10;99.90;;;;;;4995783;28;20211;-71
2021/05/26 06:18:38;;;;;;;9.27;8.25;;;12.10;99.90;;;;;;4995563;28;20215;-71
2021/05/26 06:21:05;;;;;;;9.60;8.88;;;12.00;99.90;;;;;;4996288;28;20228;-67
2021/05/26 06:23:31;;;;;;;9.60;8.90;;;11.90;99.90;;;;;;4996013;28;20580;-67
2021/05/26 06:25:57;;;;;;;10.45;9.55;;;11.90;99.90;;;;;;4996326;28;20203;-67
2021/05/26 06:28:23;;;;;;;9.98;9.27;;;11.80;99.90;;;;;;4996303;28;20223;-69
2021/05/26 06:30:50;;;;;;;10.75;9.95;;;11.80;99.90;;;;;;4995258;28;20236;-69
2021/05/26 06:33:16;;;;;;;10.18;9.38;;;11.80;99.90;;;;;;4994977;28;20403;-69
2021/05/26 06:35:43;;;;;;;9.70;8.80;;;11.70;99.90;;;;;;4995625;28;20203;-69
2021/05/26 06:38:09;;;;;;;9.68;8.85;;;11.70;99.90;;;;;;4995744;28;20659;-69
2021/05/26 06:40:35;;;;;;;10.57;9.82;;;11.70;99.90;;;;;;4994704;28;20568;-70
2021/05/26 06:43:01;;;;;;;9.85;9.15;;;11.70;99.90;;;;;;4995469;28;20215;-71
2021/05/26 06:45:28;;;;;;;10.70;9.90;;;11.70;99.90;;;;;;4995360;28;20762;-71
2021/05/26 06:47:54;;;;;;;10.45;9.75;;;11.70;99.90;;;;;;4995390;28;20208;-71
2021/05/26 06:50:20;;;;;;;11.00;10.20;;;11.70;99.90;;;;;;4995462;28;20278;-70
2021/05/26 06:52:47;;;;;;;10.25;9.32;;;11.70;99.90;;;;;;4995294;28;20223;-71
2021/05/26 06:55:13;;;;;;;10.63;9.30;;;11.80;99.90;;;;;;4995090;28;20215;-70
2021/05/26 06:57:40;;;;;;;10.15;9.35;;;11.70;99.90;;;;;;4995017;28;20212;-71
2021/05/26 07:00:07;;;;;;;11.75;10.68;;;11.70;99.90;;;;;;4995010;28;20642;-70
2021/05/26 07:02:33;;;;;;;9.50;8.70;;;11.70;99.90;;;;;;4995612;28;20680;-66
2021/05/26 07:04:59;;;;;;;9.90;9.13;;;11.70;99.90;;;;;;4996668;28;20208;-66
2021/05/26 07:07:26;;;;;;;9.88;8.70;;;11.80;99.90;;;;;;4996891;28;20787;-66
2021/05/26 07:09:53;;;;;;;9.18;8.57;;;12.00;99.90;;;;;;4996781;28;20627;-66
2021/05/26 07:12:19;;;;;;;10.20;9.40;;;12.10;99.90;;;;;;4995911;28;20227;-66
2021/05/26 07:14:46;;;;;;;9.30;8.50;;;12.20;99.90;;;;;;4995876;28;20570;-66
2021/05/26 07:17:12;;;;;;;9.60;8.52;;;12.40;99.90;;;;;;4995663;28;20207;-67
2021/05/26 07:19:39;;;;;;;8.70;8.20;;;12.60;99.90;;;;;;4995976;28;20262;-68
2021/05/26 07:22:05;;;;;;;8.70;8.00;;;12.80;99.90;;;;;;4995600;28;20235;-68
2021/05/26 07:24:31;;;;;;;8.37;7.77;;;12.90;99.90;;;;;;4995553;28;20583;-67
2021/05/26 07:26:58;;;;;;;8.30;7.70;;;13.00;99.90;;;;;;4995257;28;20561;-70
2021/05/26 07:29:25;;;;;;;8.97;8.07;;;13.00;99.90;;;;;;4994937;28;20576;-71
2021/05/26 07:31:51;;;;;;;18.10;16.20;;;13.20;99.90;;;;;;4994224;28;20593;-71
2021/05/26 07:34:18;;;;;;;46.17;34.73;;;13.50;99.90;;;;;;4994715;28;20587;-72
2021/05/26 07:36:44;;;;;;;27.77;18.87;;;13.60;99.90;;;;;;4995639;28;20467;-71
2021/05/26 07:39:10;;;;;;;46.37;30.80;;;13.50;99.90;;;;;;4997963;28;20466;-71
2021/05/26 07:41:36;;;;;;;48.67;31.70;;;13.30;99.90;;;;;;4994996;28;20482;-70
2021/05/26 07:44:04;;;;;;;11.13;10.10;;;13.30;99.90;;;;;;4995006;28;20862;-70
2021/05/26 07:46:30;;;;;;;23.17;18.07;;;13.50;99.90;;;;;;4993651;28;20462;-69
2021/05/26 07:48:57;;;;;;;10.40;9.40;;;13.40;99.90;;;;;;4994611;28;20467;-71
2021/05/26 07:51:28;;;;;;;12.23;11.07;;;13.30;99.90;;;;;;4993170;28;20483;-69
2021/05/26 07:53:54;;;;;;;13.23;10.57;;;13.20;99.90;;;;;;4994445;28;20590;-70
2021/05/26 07:56:21;;;;;;;8.87;8.07;;;13.20;99.90;;;;;;4994409;28;20465;-69
2021/05/26 07:58:47;;;;;;;9.13;8.30;;;13.10;99.90;;;;;;4994607;28;20473;-71
2021/05/26 08:01:15;;;;;;;7.70;7.00;;;13.00;99.90;;;;;;4993862;28;20557;-72
2021/05/26 08:03:41;;;;;;;7.43;6.73;;;13.00;99.90;;;;;;4994046;28;20942;-67
2021/05/26 08:06:07;;;;;;;9.30;8.60;;;13.10;99.90;;;;;;4994712;28;20886;-71
2021/05/26 08:08:35;;;;;;;6.90;6.40;;;13.30;99.90;;;;;;4995492;28;20832;-71
2021/05/26 08:11:04;;;;;;;7.10;6.40;;;13.80;99.90;;;;;;4994147;28;20867;-71
2021/05/26 08:13:30;;;;;;;6.47;6.00;;;14.20;99.90;;;;;;4994334;28;20491;-70
2021/05/26 08:15:56;;;;;;;7.20;6.60;;;14.20;99.90;;;;;;4993978;28;20466;-70
2021/05/26 08:18:23;;;;;;;6.70;6.17;;;14.50;99.90;;;;;;4994029;28;20471;-70
2021/05/26 08:20:50;;;;;;;7.07;6.20;;;14.30;99.90;;;;;;4993830;28;20487;-70
2021/05/26 08:23:16;;;;;;;7.50;7.00;;;14.20;99.90;;;;;;4993459;28;20458;-69
2021/05/26 08:25:42;;;;;;;7.13;6.47;;;13.90;99.90;;;;;;4994685;28;20466;-66
2021/05/26 08:28:08;;;;;;;8.10;7.43;;;13.80;99.90;;;;;;4994224;28;20466;-68
2021/05/26 08:30:36;;;;;;;6.53;5.97;;;13.80;99.90;;;;;;4993746;28;20483;-67
2021/05/26 08:33:02;;;;;;;7.03;6.37;;;13.90;99.90;;;;;;5003075;28;20487;-67
2021/05/26 08:35:29;;;;;;;7.10;6.40;;;13.80;99.90;;;;;;5002874;28;20478;-67
2021/05/26 08:37:55;;;;;;;7.83;7.13;;;13.90;99.90;;;;;;4999820;28;20923;-67
2021/05/26 08:40:21;;;;;;;7.87;6.50;;;13.90;99.90;;;;;;4995050;28;20788;-67
2021/05/26 08:42:48;;;;;;;7.57;6.33;;;13.80;99.90;;;;;;4994391;28;20455;-67
2021/05/26 08:45:15;;;;;;;7.50;7.00;;;13.80;99.90;;;;;;4994337;28;20467;-67
2021/05/26 08:47:42;;;;;;;7.73;7.00;;;13.80;99.90;;;;;;4993531;28;20521;-67
2021/05/26 08:50:09;;;;;;;9.10;8.40;;;13.70;99.90;;;;;;4993446;28;20459;-70
2021/05/26 08:52:36;;;;;;;7.67;7.17;;;13.60;99.90;;;;;;4992787;28;20854;-70
2021/05/26 08:55:04;;;;;;;8.87;8.17;;;13.60;99.90;;;;;;4994411;28;20533;-70
2021/05/26 08:57:30;;;;;;;8.27;7.47;;;13.60;99.90;;;;;;4994123;28;20463;-67
2021/05/26 08:59:56;;;;;;;8.50;7.70;;;13.70;99.90;;;;;;4995034;28;20541;-67
2021/05/26 09:02:23;;;;;;;8.00;7.37;;;13.60;99.90;;;;;;4992784;28;20491;-67
2021/05/26 09:04:49;;;;;;;10.77;7.37;;;13.50;99.90;;;;;;4993055;28;20517;-67
2021/05/26 09:07:16;;;;;;;7.63;7.00;;;13.60;99.90;;;;;;4992710;28;20934;-67
2021/05/26 09:09:54;;;;;;;8.20;7.50;;;13.70;99.90;;;;;;4992886;28;20458;-67
2021/05/26 09:12:26;;;;;;;7.30;6.70;;;13.80;99.90;;;;;;4992421;28;20486;-67
2021/05/26 09:14:54;;;;;;;6.27;5.90;;;13.80;99.90;;;;;;4992449;28;20458;-67
2021/05/26 09:17:20;;;;;;;8.43;6.83;;;13.90;99.90;;;;;;4993110;28;20521;-67
2021/05/26 09:19:47;;;;;;;7.70;6.97;;;14.10;99.90;;;;;;4992965;28;20462;-67
2021/05/26 09:22:15;;;;;;;7.30;6.83;;;14.10;99.90;;;;;;4992615;28;20482;-67
2021/05/26 09:24:41;;;;;;;9.53;8.80;;;14.20;99.90;;;;;;4992853;28;20471;-67
2021/05/26 09:27:10;;;;;;;14.40;13.10;;;14.40;99.90;;;;;;4993017;28;20834;-67
2021/05/26 09:29:37;;;;;;;6.57;6.20;;;14.20;99.90;;;;;;4992097;28;20509;-69
2021/05/26 09:32:14;;;;;;;7.17;6.67;;;14.20;99.90;;;;;;4991870;28;20486;-69
2021/05/26 09:34:42;;;;;;;14.03;12.83;;;14.40;99.90;;;;;;4992966;28;20458;-67
2021/05/26 09:37:13;;;;;;;6.73;6.33;;;14.80;99.90;;;;;;4992668;28;20833;-67
2021/05/26 09:39:54;;;;;;;6.20;6.00;;;14.90;99.90;;;;;;4992700;28;20486;-68
2021/05/26 09:42:41;;;;;;;6.00;5.70;;;14.80;99.90;;;;;;4992894;28;20486;-67
2021/05/26 09:45:15;;;;;;;8.77;8.07;;;14.70;99.90;;;;;;4992109;28;20955;-67
2021/05/26 09:47:44;;;;;;;7.80;7.10;;;14.50;99.90;;;;;;4992127;28;20462;-67
2021/05/26 09:50:24;;;;;;;9.60;8.80;;;14.20;99.90;;;;;;4992344;28;20459;-68
2021/05/26 09:53:06;;;;;;;14.00;11.87;;;14.00;99.90;;;;;;4992236;28;20674;-67
2021/05/26 09:55:35;;;;;;;9.20;8.30;;;13.90;99.90;;;;;;4992314;28;20989;-67
2021/05/26 09:58:03;;;;;;;9.27;8.43;;;13.80;99.90;;;;;;4992445;28;20470;-67
2021/05/26 10:00:31;;;;;;;21.33;15.27;;;13.70;99.90;;;;;;4991791;28;20231;-67
2021/05/26 10:02:57;;;;;;;9.52;8.82;;;13.60;99.90;;;;;;4991626;28;20574;-68
2021/05/26 10:05:25;;;;;;;9.70;8.80;;;13.50;99.90;;;;;;4992140;28;20546;-67
2021/05/26 10:07:53;;;;;;;11.47;8.23;;;13.60;99.90;;;;;;4991907;28;20231;-67
2021/05/26 10:10:21;;;;;;;8.98;8.25;;;13.70;99.90;;;;;;4992032;28;20467;-67
2021/05/26 10:12:55;;;;;;;14.30;13.10;;;13.80;99.90;;;;;;4991755;28;20223;-67
2021/05/26 10:15:23;;;;;;;8.70;8.10;;;13.90;99.90;;;;;;4993644;28;20891;-68
2021/05/26 10:17:51;;;;;;;9.13;8.47;;;14.00;99.90;;;;;;4995273;28;20467;-67
2021/05/26 10:20:20;;;;;;;8.67;7.83;;;14.00;99.90;;;;;;4995585;28;20470;-68
2021/05/26 10:22:48;;;;;;;7.30;6.60;;;13.90;99.90;;;;;;4995697;28;20466;-67
2021/05/26 10:25:15;;;;;;;8.57;7.73;;;13.80;99.90;;;;;;4995662;28;20577;-67
2021/05/26 10:27:47;;;;;;;9.73;8.73;;;13.80;99.90;;;;;;4995396;28;20463;-68
2021/05/26 10:30:14;;;;;;;6.13;5.73;;;13.60;99.90;;;;;;4995782;28;20521;-68
2021/05/26 10:32:59;;;;;;;6.15;5.75;;;13.40;99.90;;;;;;4994902;28;20493;-67
2021/05/26 10:35:26;;;;;;;6.35;5.85;;;13.10;99.90;;;;;;4995333;28;20211;-67
2021/05/26 10:38:04;;;;;;;5.82;5.53;;;13.00;99.90;;;;;;4995259;28;20227;-67
2021/05/26 10:40:41;;;;;;;5.95;5.50;;;12.90;99.90;;;;;;4995483;28;20318;-66
2021/05/26 10:43:36;;;;;;;5.43;5.13;;;12.90;99.90;;;;;;4995603;28;20215;-67
2021/05/26 10:46:05;;;;;;;6.80;6.30;;;13.00;99.90;;;;;;4997011;28;20258;-67
2021/05/26 10:49:06;;;;;;;6.15;5.70;;;13.10;99.90;;;;;;4995713;28;20216;-67
2021/05/26 10:52:06;;;;;;;7.25;6.70;;;13.30;99.90;;;;;;4996135;28;20289;-67
2021/05/26 10:55:01;;;;;;;9.77;8.73;;;13.60;99.90;;;;;;4995878;28;20231;-68
2021/05/26 10:57:29;;;;;;;7.68;6.97;;;13.70;99.90;;;;;;4995580;28;20211;-65
2021/05/26 11:00:28;;;;;;;8.63;7.93;;;13.90;99.90;;;;;;4994984;28;20258;-66
2021/05/26 11:03:40;;;;;;;7.55;6.97;;;13.90;99.90;;;;;;4994934;28;20844;-67
2021/05/26 11:06:37;;;;;;;6.97;6.43;;;14.00;99.90;;;;;;4995354;28;20220;-67
2021/05/26 11:09:07;;;;;;;6.83;6.40;;;14.20;99.90;;;;;;4995606;28;20649;-67
2021/05/26 11:11:55;;;;;;;6.28;5.75;;;14.30;99.90;;;;;;4994951;28;20514;-69
2021/05/26 11:14:33;;;;;;;8.20;7.50;;;14.40;99.90;;;;;;4996203;28;20232;-69
2021/05/26 11:17:33;;;;;;;5.47;5.07;;;14.50;99.90;;;;;;4995706;28;20459;-69
2021/05/26 11:20:21;;;;;;;4.90;4.60;;;14.50;99.90;;;;;;4915747;29;20533;-68
2021/05/26 11:22:49;;;;;;;4.73;4.43;;;14.60;99.90;;;;;;4985115;28;20532;-67
2021/05/26 11:25:15;;;;;;;4.30;4.10;;;14.70;99.90;;;;;;4994589;28;20800;-67
2021/05/26 11:27:49;;;;;;;4.20;4.00;;;14.80;99.90;;;;;;4994812;28;20466;-67
2021/05/26 11:30:20;;;;;;;4.10;3.90;;;14.90;99.90;;;;;;4994085;28;20470;-67
2021/05/26 11:32:46;;;;;;;4.00;3.90;;;14.80;99.90;;;;;;4994007;28;20572;-67
2021/05/26 11:35:13;;;;;;;4.97;4.77;;;14.70;99.90;;;;;;4994441;28;20489;-67
2021/05/26 11:37:41;;;;;;;5.50;5.23;;;14.50;99.90;;;;;;4994479;28;20459;-67
2021/05/26 11:40:28;;;;;;;5.38;5.07;;;14.20;99.90;;;;;;4994463;28;20463;-67
2021/05/26 11:42:56;;;;;;;6.13;5.63;;;14.10;99.90;;;;;;4994009;28;20208;-67
2021/05/26 11:45:24;;;;;;;13.07;5.50;;;14.00;99.90;;;;;;4994183;28;20485;-67
2021/05/26 11:47:51;;;;;;;7.78;6.70;;;13.80;99.90;;;;;;4993787;28;20553;-67
2021/05/26 11:50:23;;;;;;;8.65;7.47;;;13.60;99.90;;;;;;4994209;28;20215;-68
2021/05/26 11:52:50;;;;;;;6.13;5.72;;;13.10;99.90;;;;;;4993936;28;20227;-68
2021/05/26 11:55:19;;;;;;;6.68;5.20;;;12.90;99.90;;;;;;4993927;28;20214;-68
2021/05/26 11:57:47;;;;;;;4.80;4.50;;;13.00;99.90;;;;;;4994603;28;20215;-68
2021/05/26 12:00:21;;;;;;;4.28;3.85;;;13.20;99.90;;;;;;5000965;28;20227;-68
2021/05/26 12:02:58;;;;;;;3.10;3.10;;;13.40;99.90;;;;;;5002301;28;20199;-68
2021/05/26 12:05:38;;;;;;;3.70;3.60;;;13.60;99.90;;;;;;5002979;28;20211;-67
2021/05/26 12:08:15;;;;;;;4.20;4.00;;;13.90;99.90;;;;;;5002403;28;20544;-67
2021/05/26 12:10:43;;;;;;;5.63;5.30;;;14.00;99.90;;;;;;5003058;28;20537;-68
2021/05/26 12:13:09;;;;;;;6.47;5.60;;;14.10;99.90;;;;;;5004380;28;20851;-69
2021/05/26 12:15:36;;;;;;;6.07;5.67;;;14.20;99.90;;;;;;5005936;28;20459;-68
2021/05/26 12:18:04;;;;;;;7.20;6.03;;;14.30;99.90;;;;;;5010607;28;20466;-69
2021/05/26 12:20:30;;;;;;;6.60;6.10;;;14.50;99.90;;;;;;5010864;28;20514;-69
2021/05/26 12:22:58;;;;;;;7.30;6.80;;;14.50;99.90;;;;;;5011710;28;20450;-68
2021/05/26 12:25:35;;;;;;;9.00;7.07;;;14.50;99.90;;;;;;5001321;28;20918;-68
2021/05/26 12:28:19;;;;;;;7.80;7.00;;;14.60;99.90;;;;;;4994732;28;20498;-68
2021/05/26 12:30:47;;;;;;;6.27;5.80;;;14.80;99.90;;;;;;4993835;28;20501;-68
2021/05/26 12:33:18;;;;;;;6.47;5.97;;;14.90;99.90;;;;;;4992495;28;20979;-68
2021/05/26 12:35:58;;;;;;;7.07;6.47;;;14.90;99.90;;;;;;4994306;28;20478;-68
2021/05/26 12:38:24;;;;;;;7.17;6.67;;;14.90;99.90;;;;;;4993223;28;20458;-68
2021/05/26 12:40:51;;;;;;;6.43;5.93;;;15.10;99.90;;;;;;4993311;28;20487;-67
2021/05/26 12:43:26;;;;;;;6.40;6.00;;;15.30;99.90;;;;;;4993148;28;20463;-68
2021/05/26 12:45:53;;;;;;;5.97;5.47;;;15.60;99.90;;;;;;4993084;28;20473;-68
2021/05/26 12:48:20;;;;;;;5.67;5.37;;;15.70;99.90;;;;;;4993625;28;20463;-68
2021/05/26 12:50:46;;;;;;;6.17;5.77;;;15.80;99.90;;;;;;4993856;28;20502;-68
2021/05/26 12:53:15;;;;;;;7.10;5.60;;;16.00;99.90;;;;;;4995765;28;20553;-68
2021/05/26 12:55:43;;;;;;;6.17;5.53;;;16.10;99.90;;;;;;4993541;28;20470;-68
2021/05/26 12:58:14;;;;;;;4.70;4.47;;;16.10;99.90;;;;;;4994402;28;20562;-68
2021/05/26 13:00:42;;;;;;;4.47;4.20;;;16.10;99.90;;;;;;4992168;28;21052;-68
2021/05/26 13:03:09;;;;;;;4.30;3.97;;;16.30;99.90;;;;;;4994148;28;20443;-70
2021/05/26 13:05:38;;;;;;;5.47;4.33;;;16.40;99.90;;;;;;4994107;28;20489;-68
2021/05/26 13:08:09;;;;;;;5.13;4.63;;;16.50;99.90;;;;;;4994088;28;20843;-68
2021/05/26 13:10:44;;;;;;;4.23;4.07;;;16.40;99.90;;;;;;4993381;28;20494;-68
2021/05/26 13:13:22;;;;;;;4.97;4.57;;;16.10;99.90;;;;;;4992406;28;20482;-68
2021/05/26 13:15:52;;;;;;;4.73;4.53;;;15.80;99.90;;;;;;4992402;28;20521;-68
2021/05/26 13:18:19;;;;;;;6.50;6.10;;;15.50;99.90;;;;;;4992752;28;20832;-68
2021/05/26 13:20:47;;;;;;;5.30;5.03;;;15.40;99.90;;;;;;4992619;28;20482;-68
2021/05/26 13:23:14;;;;;;;4.40;4.10;;;15.60;99.90;;;;;;4993129;28;20825;-68
2021/05/26 13:25:43;;;;;;;4.27;4.03;;;16.00;99.90;;;;;;4992892;28;20470;-68
2021/05/26 13:28:11;;;;;;;4.33;4.13;;;16.30;99.90;;;;;;4992974;28;20462;-68
2021/05/26 13:30:40;;;;;;;4.70;4.50;;;16.40;99.90;;;;;;4992379;28;20487;-67
2021/05/26 13:33:07;;;;;;;4.70;4.57;;;16.30;99.90;;;;;;4991910;28;20494;-68
2021/05/26 13:35:34;;;;;;;5.57;5.23;;;16.20;99.90;;;;;;4992544;28;20555;-68
2021/05/26 13:38:02;;;;;;;5.30;4.70;;;15.80;99.90;;;;;;4992231;28;21009;-68
2021/05/26 13:40:29;;;;;;;4.27;3.87;;;15.50;99.90;;;;;;4992329;28;20482;-66
2021/05/26 13:42:57;;;;;;;4.90;3.50;;;15.20;99.90;;;;;;4992088;28;20860;-69
2021/05/26 13:45:23;;;;;;;4.80;2.57;;;15.00;99.90;;;;;;4991860;28;20462;-70
2021/05/26 13:47:49;;;;;;;3.20;3.10;;;14.90;99.90;;;;;;4992075;28;20970;-69
2021/05/26 13:50:18;;;;;;;3.10;3.00;;;14.70;99.90;;;;;;4996532;28;20509;-71
2021/05/26 13:52:46;;;;;;;3.33;3.13;;;14.50;99.90;;;;;;4997103;28;20470;-69
2021/05/26 13:55:14;;;;;;;3.10;3.00;;;14.40;99.90;;;;;;4998114;28;20498;-70
2021/05/26 13:57:40;;;;;;;3.57;3.47;;;14.30;99.90;;;;;;4997585;28;20570;-67
2021/05/26 14:00:08;;;;;;;4.80;4.10;;;14.20;99.90;;;;;;4997352;28;20463;-68
2021/05/26 14:02:35;;;;;;;3.17;2.95;;;14.00;99.90;;;;;;4996822;28;20479;-67
2021/05/26 14:05:01;;;;;;;2.50;2.50;;;13.70;99.90;;;;;;4997650;28;20211;-67
2021/05/26 14:07:28;;;;;;;2.50;2.35;;;13.40;99.90;;;;;;4997340;28;20278;-67
2021/05/26 14:09:55;;;;;;;2.08;2.08;;;13.20;99.90;;;;;;4997912;28;20212;-67
2021/05/26 14:12:21;;;;;;;2.22;2.13;;;12.90;99.90;;;;;;4996263;28;20228;-71
2021/05/26 14:14:47;;;;;;;1.73;1.73;;;12.80;99.90;;;;;;4995402;28;20321;-70
2021/05/26 14:17:13;;;;;;;2.30;2.30;;;12.80;99.90;;;;;;4995384;28;20293;-71
2021/05/26 14:19:40;;;;;;;2.53;2.40;;;12.90;99.90;;;;;;4995971;28;20578;-70
2021/05/26 14:22:08;;;;;;;2.80;2.20;;;13.00;99.90;;;;;;4995737;28;20228;-70
2021/05/26 14:24:34;;;;;;;2.67;2.67;;;13.10;99.90;;;;;;4996051;28;20246;-70
2021/05/26 14:27:01;;;;;;;3.35;3.22;;;13.00;99.90;;;;;;4995629;28;20211;-71
2021/05/26 14:29:27;;;;;;;3.10;3.00;;;12.80;99.90;;;;;;4995586;28;20264;-71
2021/05/26 14:31:53;;;;;;;3.30;3.20;;;12.70;99.90;;;;;;4995055;28;20228;-71
2021/05/26 14:34:19;;;;;;;4.53;3.60;;;12.50;99.90;;;;;;4996138;28;20224;-67
2021/05/26 14:36:46;;;;;;;3.90;3.70;;;12.30;99.90;;;;;;4996772;28;20220;-67
2021/05/26 14:39:15;;;;;;;4.40;4.20;;;12.10;99.90;;;;;;4996895;28;20302;-67
2021/05/26 14:41:44;;;;;;;4.43;4.22;;;12.20;99.90;;;;;;4996937;28;20734;-67
2021/05/26 14:44:10;;;;;;;5.07;4.78;;;12.30;99.90;;;;;;4996241;28;20204;-68
2021/05/26 14:46:37;;;;;;;7.32;5.57;;;12.50;99.90;;;;;;4995778;28;20212;-67
2021/05/26 14:49:03;;;;;;;5.65;5.15;;;12.50;99.90;;;;;;4996934;28;20208;-67
2021/05/26 14:51:32;;;;;;;4.85;4.50;;;12.60;99.90;;;;;;4995932;28;20422;-69
2021/05/26 14:53:58;;;;;;;4.47;4.18;;;12.80;99.90;;;;;;4994569;28;20231;-70
2021/05/26 14:56:25;;;;;;;5.38;5.03;;;13.00;99.90;;;;;;4994899;28;20211;-70
2021/05/26 14:58:52;;;;;;;4.68;4.47;;;13.30;99.90;;;;;;4995390;28;20215;-70
2021/05/26 15:01:20;;;;;;;4.63;4.38;;;13.60;99.90;;;;;;4993860;28;20239;-70
2021/05/26 15:03:46;;;;;;;4.37;4.17;;;13.80;99.90;;;;;;4994425;28;20210;-70
2021/05/26 15:06:12;;;;;;;4.83;4.53;;;13.90;99.90;;;;;;4994536;28;20486;-70
2021/05/26 15:08:38;;;;;;;4.73;4.43;;;14.00;99.90;;;;;;4994789;28;20572;-70
2021/05/26 15:11:04;;;;;;;4.37;4.27;;;14.00;99.90;;;;;;4994607;28;20490;-70
2021/05/26 15:13:31;;;;;;;6.25;5.90;;;13.90;99.90;;;;;;4994524;28;20889;-70
2021/05/26 15:15:59;;;;;;;5.60;5.13;;;13.80;99.90;;;;;;4994168;28;20315;-71
2021/05/26 15:18:25;;;;;;;5.93;5.53;;;13.90;99.90;;;;;;4994594;28;20470;-70
2021/05/26 15:20:52;;;;;;;5.50;5.10;;;13.90;99.90;;;;;;4996143;28;20487;-71
2021/05/26 15:23:19;;;;;;;5.13;4.77;;;13.80;99.90;;;;;;4995711;28;20463;-71
2021/05/26 15:25:45;;;;;;;4.70;4.17;;;13.80;99.90;;;;;;4995823;28;20463;-70
2021/05/26 15:28:13;;;;;;;4.70;4.47;;;13.90;99.90;;;;;;4996447;28;20525;-70
2021/05/26 15:30:41;;;;;;;6.40;5.97;;;14.00;99.90;;;;;;4995431;28;20491;-70
2021/05/26 15:33:08;;;;;;;6.23;5.73;;;14.10;99.90;;;;;;4995723;28;20494;-68
2021/05/26 15:35:35;;;;;;;5.40;5.10;;;14.20;99.90;;;;;;4996823;28;20473;-68
2021/05/26 15:38:01;;;;;;;4.67;4.47;;;14.40;99.90;;;;;;4993996;28;20490;-67
2021/05/26 15:40:28;;;;;;;4.03;3.83;;;14.40;99.90;;;;;;4995505;28;20701;-67
2021/05/26 15:42:54;;;;;;;4.80;4.60;;;14.40;99.90;;;;;;4995561;28;20463;-71
2021/05/26 15:45:20;;;;;;;3.97;3.80;;;14.60;99.90;;;;;;4993777;28;20934;-71
2021/05/26 15:47:47;;;;;;;4.37;4.27;;;14.60;99.90;;;;;;4994233;28;20478;-71
2021/05/26 15:50:14;;;;;;;3.97;3.70;;;14.50;99.90;;;;;;4994170;28;20466;-67
2021/05/26 15:52:42;;;;;;;4.10;3.90;;;14.50;99.90;;;;;;4993801;28;20463;-68
2021/05/26 15:55:10;;;;;;;3.80;3.70;;;14.60;99.90;;;;;;4994216;28;20813;-67
2021/05/26 15:57:38;;;;;;;3.60;3.50;;;14.60;99.90;;;;;;4994306;28;20463;-68
2021/05/26 16:00:07;;;;;;;3.80;3.60;;;14.50;99.90;;;;;;4993495;28;20561;-67
2021/05/26 16:02:33;;;;;;;4.43;4.33;;;14.60;99.90;;;;;;4992936;28;20273;-71
2021/05/26 16:05:00;;;;;;;4.27;3.97;;;14.80;99.90;;;;;;4994346;28;20462;-67
2021/05/26 16:07:27;;;;;;;3.47;3.33;;;15.10;99.90;;;;;;4994007;28;20990;-68
2021/05/26 16:09:53;;;;;;;3.47;3.37;;;15.10;99.90;;;;;;4994562;28;20475;-67
2021/05/26 16:12:19;;;;;;;3.73;3.60;;;14.90;99.90;;;;;;4992902;28;20546;-67
2021/05/26 16:14:46;;;;;;;3.73;3.63;;;14.80;99.90;;;;;;4993462;28;20491;-70
2021/05/26 16:17:13;;;;;;;3.73;3.53;;;14.80;99.90;;;;;;4993283;28;20850;-70
2021/05/26 16:19:39;;;;;;;4.10;3.57;;;14.90;99.90;;;;;;4993529;28;20474;-70
2021/05/26 16:22:06;;;;;;;3.53;3.33;;;15.00;99.90;;;;;;4993097;28;20495;-70
2021/05/26 16:24:33;;;;;;;3.00;2.90;;;15.00;99.90;;;;;;4993567;28;20470;-71
2021/05/26 16:26:59;;;;;;;3.50;3.40;;;15.00;99.90;;;;;;4993365;28;20955;-70
2021/05/26 16:29:26;;;;;;;3.53;3.43;;;15.00;99.90;;;;;;4993526;28;20459;-71
2021/05/26 16:31:52;;;;;;;3.67;3.47;;;15.00;99.90;;;;;;4992314;28;20549;-71
2021/05/26 16:34:19;;;;;;;3.10;2.90;;;14.90;99.90;;;;;;4992930;28;20498;-70
2021/05/26 16:36:45;;;;;;;3.37;3.27;;;14.90;99.90;;;;;;4993002;28;20458;-70
2021/05/26 16:39:12;;;;;;;3.40;3.30;;;14.60;99.90;;;;;;4993516;28;20463;-70
2021/05/26 16:41:39;;;;;;;3.23;3.03;;;14.50;99.90;;;;;;4992992;28;20483;-70
2021/05/26 16:44:06;;;;;;;3.77;3.60;;;14.40;99.90;;;;;;4992827;28;20465;-70
2021/05/26 16:46:33;;;;;;;3.30;3.10;;;14.40;99.90;;;;;;4992136;28;20474;-70
2021/05/26 16:48:59;;;;;;;5.00;3.80;;;14.50;99.90;;;;;;4992839;28;20458;-70
2021/05/26 16:51:28;;;;;;;3.40;3.20;;;14.50;99.90;;;;;;4992494;28;20509;-69